sensor_id;sensor_type;location;lat;lon;timestamp;temperature;humidity
31113;DHT22;17763;48.730;9.136;2023-05-07T00:00:29;14.60;99.90
31113;DHT22;17763;48.730;9.136;2023-05-07T00:02:55;14.70;99.90
31113;DHT22;17763;48.730;9.136;2023-05-07T00:05:21;14.60;99.90
31113;DHT22;17763;48.730;9.136;2023-05-07T00:07:47;14.60;99.90
31113;DHT22;17763;48.730;9.136;2023-05-07T00:10:13;14.60;99.90
31113;DHT22;17763;48.730;9.136;2023-05-07T00:12:42;14.60;99.90
31113;DHT22;17763;48.730;9.136;2023-05-07T00:15:08;14.60;99.90
31113;DHT22;17763;48.730;9.136;2023-05-07T00:17:34;14.60;99.90
31113;DHT22;17763;48.730;9.136;2023-05-07T00:20:00;14.50;99.90
31113;DHT22;17763;48.730;9.136;2023-05-07T00:22:28;14.60;99.90
31113;DHT22;17763;48.730;9.136;2023-05-07T00:24:57;14.60;99.90
31113;DHT22;17763;48.730;9.136;2023-05-07T00:27:24;14.50;99.90
31113;DHT22;17763;48.730;9.136;2023-05-07T00:29:52;14.50;99.90
31113;DHT22;17763;48.730;9.136;2023-05-07T00:32:18;14.50;99.90
31113;DHT22;17763;48.730;9.136;2023-05-07T00:34:43;14.40;99.90
31113;DHT22;17763;48.730;9.136;2023-05-07T00:37:11;14.40;99.90
31113;DHT22;17763;48.730;9.136;2023-05-07T00:39:37;14.40;99.90
31113;DHT22;17763;48.730;9.136;2023-05-07T00:42:03;14.40;99.90
31113;DHT22;17763;48.730;9.136;2023-05-07T00:44:29;14.40;99.90
31113;DHT22;17763;48.730;9.136;2023-05-07T00:46:57;14.40;99.90
31113;DHT22;17763;48.730;9.136;2023-05-07T00:49:26;14.30;99.90
31113;DHT22;17763;48.730;9.136;2023-05-07T00:51:57;14.30;99.90
31113;DHT22;17763;48.730;9.136;2023-05-07T00:54:23;14.30;99.90
31113;DHT22;17763;48.730;9.136;2023-05-07T00:56:49;14.30;99.90
31113;DHT22;17763;48.730;9.136;2023-05-07T00:59:15;14.30;99.90
31113;DHT22;17763;48.730;9.136;2023-05-07T01:01:40;14.30;99.90
31113;DHT22;17763;48.730;9.136;2023-05-07T01:04:06;14.30;99.90
31113;DHT22;17763;48.730;9.136;2023-05-07T01:06:34;14.30;99.90
31113;DHT22;17763;48.730;9.136;2023-05-07T01:09:00;14.20;99.90
31113;DHT22;17763;48.730;9.136;2023-05-07T01:11:26;14.20;99.90
31113;DHT22;17763;48.730;9.136;2023-05-07T01:13:52;14.30;99.90
31113;DHT22;17763;48.730;9.136;2023-05-07T01:16:18;14.20;99.90
31113;DHT22;17763;48.730;9.136;2023-05-07T01:18:44;14.20;99.90
31113;DHT22;17763;48.730;9.136;2023-05-07T01:21:14;14.20;99.90
31113;DHT22;17763;48.730;9.136;2023-05-07T01:23:41;14.20;99.90
31113;DHT22;17763;48.730;9.136;2023-05-07T01:26:07;14.20;99.90
31113;DHT22;17763;48.730;9.136;2023-05-07T01:28:33;14.20;99.90
31113;DHT22;17763;48.730;9.136;2023-05-07T01:31:02;14.20;99.90
31113;DHT22;17763;48.730;9.136;2023-05-07T01:33:34;14.20;99.90
31113;DHT22;17763;48.730;9.136;2023-05-07T01:36:00;14.20;99.90
31113;DHT22;17763;48.730;9.136;2023-05-07T01:38:29;14.10;99.90
31113;DHT22;17763;48.730;9.136;2023-05-07T01:40:56;14.10;99.90
31113;DHT22;17763;48.730;9.136;2023-05-07T01:43:21;14.10;99.90
31113;DHT22;17763;48.730;9.136;2023-05-07T01:45:48;14.10;99.90
31113;DHT22;17763;48.730;9.136;2023-05-07T01:48:15;14.10;99.90
31113;DHT22;17763;48.730;9.136;2023-05-07T01:50:42;14.10;99.90
31113;DHT22;17763;48.730;9.136;2023-05-07T01:53:08;14.10;99.90
31113;DHT22;17763;48.730;9.136;2023-05-07T01:55:34;14.00;99.90
31113;DHT22;17763;48.730;9.136;2023-05-07T01:58:02;14.10;99.90
31113;DHT22;17763;48.730;9.136;2023-05-07T02:00:35;14.00;99.90
31113;DHT22;17763;48.730;9.136;2023-05-07T02:03:08;14.00;99.90
31113;DHT22;17763;48.730;9.136;2023-05-07T02:05:34;14.00;99.90
31113;DHT22;17763;48.730;9.136;2023-05-07T02:08:02;14.00;99.90
31113;DHT22;17763;48.730;9.136;2023-05-07T02:10:28;14.00;99.90
31113;DHT22;17763;48.730;9.136;2023-05-07T02:12:54;14.00;99.90
31113;DHT22;17763;48.730;9.136;2023-05-07T02:15:22;14.00;99.90
31113;DHT22;17763;48.730;9.136;2023-05-07T02:18:05;14.00;99.90
31113;DHT22;17763;48.730;9.136;2023-05-07T02:20:37;14.00;99.90
31113;DHT22;17763;48.730;9.136;2023-05-07T02:23:03;14.00;99.90
31113;DHT22;17763;48.730;9.136;2023-05-07T02:25:29;14.00;99.90
31113;DHT22;17763;48.730;9.136;2023-05-07T02:27:57;14.00;99.90
31113;DHT22;17763;48.730;9.136;2023-05-07T02:30:24;14.00;99.90
31113;DHT22;17763;48.730;9.136;2023-05-07T02:32:50;14.00;99.90
31113;DHT22;17763;48.730;9.136;2023-05-07T02:35:16;14.00;99.90
31113;DHT22;17763;48.730;9.136;2023-05-07T02:37:44;13.90;99.90
31113;DHT22;17763;48.730;9.136;2023-05-07T02:40:10;13.90;99.90
31113;DHT22;17763;48.730;9.136;2023-05-07T02:42:36;13.90;99.90
31113;DHT22;17763;48.730;9.136;2023-05-07T02:45:02;13.90;99.90
31113;DHT22;17763;48.730;9.136;2023-05-07T02:47:28;13.90;99.90
31113;DHT22;17763;48.730;9.136;2023-05-07T02:49:54;13.80;99.90
31113;DHT22;17763;48.730;9.136;2023-05-07T02:52:20;13.80;99.90
31113;DHT22;17763;48.730;9.136;2023-05-07T02:54:46;13.80;99.90
31113;DHT22;17763;48.730;9.136;2023-05-07T02:57:12;13.80;99.90
31113;DHT22;17763;48.730;9.136;2023-05-07T02:59:38;13.80;99.90
31113;DHT22;17763;48.730;9.136;2023-05-07T03:02:06;13.80;99.90
31113;DHT22;17763;48.730;9.136;2023-05-07T03:04:34;13.80;99.90
31113;DHT22;17763;48.730;9.136;2023-05-07T03:06:59;13.70;99.90
31113;DHT22;17763;48.730;9.136;2023-05-07T03:09:25;13.70;99.90
31113;DHT22;17763;48.730;9.136;2023-05-07T03:11:51;13.70;99.90
31113;DHT22;17763;48.730;9.136;2023-05-07T03:14:17;13.70;99.90
31113;DHT22;17763;48.730;9.136;2023-05-07T03:16:43;13.70;99.90
31113;DHT22;17763;48.730;9.136;2023-05-07T03:19:11;13.70;99.90
31113;DHT22;17763;48.730;9.136;2023-05-07T03:21:39;13.60;99.90
31113;DHT22;17763;48.730;9.136;2023-05-07T03:24:05;13.60;99.90
31113;DHT22;17763;48.730;9.136;2023-05-07T03:26:31;13.60;99.90
31113;DHT22;17763;48.730;9.136;2023-05-07T03:28:56;13.60;99.90
31113;DHT22;17763;48.730;9.136;2023-05-07T03:31:22;13.50;99.90
31113;DHT22;17763;48.730;9.136;2023-05-07T03:33:56;13.60;99.90
31113;DHT22;17763;48.730;9.136;2023-05-07T03:36:26;13.60;99.90
31113;DHT22;17763;48.730;9.136;2023-05-07T03:38:52;13.50;99.90
31113;DHT22;17763;48.730;9.136;2023-05-07T03:41:18;13.50;99.90
31113;DHT22;17763;48.730;9.136;2023-05-07T03:43:47;13.50;99.90
31113;DHT22;17763;48.730;9.136;2023-05-07T03:46:12;13.50;99.90
31113;DHT22;17763;48.730;9.136;2023-05-07T03:48:38;13.40;99.90
31113;DHT22;17763;48.730;9.136;2023-05-07T03:51:04;13.30;99.90
31113;DHT22;17763;48.730;9.136;2023-05-07T03:53:29;13.30;99.90
31113;DHT22;17763;48.730;9.136;2023-05-07T03:55:55;13.20;99.90
31113;DHT22;17763;48.730;9.136;2023-05-07T03:58:21;13.20;99.90
31113;DHT22;17763;48.730;9.136;2023-05-07T04:00:48;13.10;99.90
31113;DHT22;17763;48.730;9.136;2023-05-07T04:03:15;13.10;99.90
31113;DHT22;17763;48.730;9.136;2023-05-07T04:05:40;13.10;99.90
31113;DHT22;17763;48.730;9.136;2023-05-07T04:08:07;13.10;99.90
31113;DHT22;17763;48.730;9.136;2023-05-07T04:10:32;13.10;99.90
31113;DHT22;17763;48.730;9.136;2023-05-07T04:12:58;13.10;99.90
31113;DHT22;17763;48.730;9.136;2023-05-07T04:15:24;13.10;99.90
31113;DHT22;17763;48.730;9.136;2023-05-07T04:17:50;13.10;99.90
31113;DHT22;17763;48.730;9.136;2023-05-07T04:20:16;13.10;99.90
31113;DHT22;17763;48.730;9.136;2023-05-07T04:22:42;13.20;99.90
31113;DHT22;17763;48.730;9.136;2023-05-07T04:25:09;13.20;99.90
31113;DHT22;17763;48.730;9.136;2023-05-07T04:27:35;13.20;99.90
31113;DHT22;17763;48.730;9.136;2023-05-07T04:30:02;13.20;99.90
31113;DHT22;17763;48.730;9.136;2023-05-07T04:32:28;13.20;99.90
31113;DHT22;17763;48.730;9.136;2023-05-07T04:34:55;13.20;99.90
31113;DHT22;17763;48.730;9.136;2023-05-07T04:37:21;13.30;99.90
31113;DHT22;17763;48.730;9.136;2023-05-07T04:39:47;13.30;99.90
31113;DHT22;17763;48.730;9.136;2023-05-07T04:42:16;13.30;99.90
31113;DHT22;17763;48.730;9.136;2023-05-07T04:44:43;13.30;99.90
31113;DHT22;17763;48.730;9.136;2023-05-07T04:47:09;13.30;99.90
31113;DHT22;17763;48.730;9.136;2023-05-07T04:49:36;13.30;99.90
31113;DHT22;17763;48.730;9.136;2023-05-07T04:52:05;13.30;99.90
31113;DHT22;17763;48.730;9.136;2023-05-07T04:54:30;13.30;99.90
31113;DHT22;17763;48.730;9.136;2023-05-07T04:56:56;13.30;99.90
31113;DHT22;17763;48.730;9.136;2023-05-07T04:59:22;13.30;99.90
31113;DHT22;17763;48.730;9.136;2023-05-07T05:01:47;13.30;99.90
31113;DHT22;17763;48.730;9.136;2023-05-07T05:04:13;13.40;99.90
31113;DHT22;17763;48.730;9.136;2023-05-07T05:06:39;13.40;99.90
31113;DHT22;17763;48.730;9.136;2023-05-07T05:09:05;13.40;99.90
31113;DHT22;17763;48.730;9.136;2023-05-07T05:11:31;13.40;99.90
31113;DHT22;17763;48.730;9.136;2023-05-07T05:13:58;13.50;99.90
31113;DHT22;17763;48.730;9.136;2023-05-07T05:16:24;13.50;99.90
31113;DHT22;17763;48.730;9.136;2023-05-07T05:18:52;13.50;99.90
31113;DHT22;17763;48.730;9.136;2023-05-07T05:21:19;13.50;99.90
31113;DHT22;17763;48.730;9.136;2023-05-07T05:23:47;13.60;99.90
31113;DHT22;17763;48.730;9.136;2023-05-07T05:26:13;13.70;99.90
31113;DHT22;17763;48.730;9.136;2023-05-07T05:28:41;13.80;99.90
31113;DHT22;17763;48.730;9.136;2023-05-07T05:31:07;13.90;99.90
31113;DHT22;17763;48.730;9.136;2023-05-07T05:33:32;13.90;99.90
31113;DHT22;17763;48.730;9.136;2023-05-07T05:35:58;14.00;99.90
31113;DHT22;17763;48.730;9.136;2023-05-07T05:38:26;14.20;99.90
31113;DHT22;17763;48.730;9.136;2023-05-07T05:40:54;14.20;99.90
31113;DHT22;17763;48.730;9.136;2023-05-07T05:43:19;14.30;99.90
31113;DHT22;17763;48.730;9.136;2023-05-07T05:45:48;14.40;99.90
31113;DHT22;17763;48.730;9.136;2023-05-07T05:48:13;14.50;99.90
31113;DHT22;17763;48.730;9.136;2023-05-07T05:50:39;14.50;99.90
31113;DHT22;17763;48.730;9.136;2023-05-07T05:53:08;14.70;99.90
31113;DHT22;17763;48.730;9.136;2023-05-07T05:55:34;14.80;99.90
31113;DHT22;17763;48.730;9.136;2023-05-07T05:58:02;14.80;99.90
31113;DHT22;17763;48.730;9.136;2023-05-07T06:00:29;14.90;99.90
31113;DHT22;17763;48.730;9.136;2023-05-07T06:02:55;15.00;99.90
31113;DHT22;17763;48.730;9.136;2023-05-07T06:05:30;15.20;99.90
31113;DHT22;17763;48.730;9.136;2023-05-07T06:07:58;15.30;99.90
31113;DHT22;17763;48.730;9.136;2023-05-07T06:10:26;15.40;99.90
31113;DHT22;17763;48.730;9.136;2023-05-07T06:12:52;15.50;99.90
31113;DHT22;17763;48.730;9.136;2023-05-07T06:15:20;15.50;99.90
31113;DHT22;17763;48.730;9.136;2023-05-07T06:17:46;15.60;99.90
31113;DHT22;17763;48.730;9.136;2023-05-07T06:20:12;15.60;99.90
31113;DHT22;17763;48.730;9.136;2023-05-07T06:22:37;15.70;99.90
31113;DHT22;17763;48.730;9.136;2023-05-07T06:25:03;15.70;99.90
31113;DHT22;17763;48.730;9.136;2023-05-07T06:27:29;15.70;99.90
31113;DHT22;17763;48.730;9.136;2023-05-07T06:29:55;15.70;99.90
31113;DHT22;17763;48.730;9.136;2023-05-07T06:32:20;15.70;99.90
31113;DHT22;17763;48.730;9.136;2023-05-07T06:34:46;15.60;99.90
31113;DHT22;17763;48.730;9.136;2023-05-07T06:37:12;15.60;99.90
31113;DHT22;17763;48.730;9.136;2023-05-07T06:39:40;15.50;99.90
31113;DHT22;17763;48.730;9.136;2023-05-07T06:42:05;15.50;99.90
31113;DHT22;17763;48.730;9.136;2023-05-07T06:44:32;15.40;99.90
31113;DHT22;17763;48.730;9.136;2023-05-07T06:46:57;15.40;99.90
31113;DHT22;17763;48.730;9.136;2023-05-07T06:49:23;15.40;99.90
31113;DHT22;17763;48.730;9.136;2023-05-07T06:51:51;15.40;99.90
31113;DHT22;17763;48.730;9.136;2023-05-07T06:54:18;15.50;99.90
31113;DHT22;17763;48.730;9.136;2023-05-07T06:56:44;15.60;99.90
31113;DHT22;17763;48.730;9.136;2023-05-07T06:59:10;15.70;99.90
31113;DHT22;17763;48.730;9.136;2023-05-07T07:01:35;15.70;99.90
31113;DHT22;17763;48.730;9.136;2023-05-07T07:04:01;15.80;99.90
31113;DHT22;17763;48.730;9.136;2023-05-07T07:06:27;15.90;99.90
31113;DHT22;17763;48.730;9.136;2023-05-07T07:08:52;16.00;99.90
31113;DHT22;17763;48.730;9.136;2023-05-07T07:11:20;16.10;99.90
31113;DHT22;17763;48.730;9.136;2023-05-07T07:13:46;16.20;99.90
31113;DHT22;17763;48.730;9.136;2023-05-07T07:16:12;16.40;99.90
31113;DHT22;17763;48.730;9.136;2023-05-07T07:18:38;16.50;99.90
31113;DHT22;17763;48.730;9.136;2023-05-07T07:21:04;16.70;99.90
31113;DHT22;17763;48.730;9.136;2023-05-07T07:23:29;16.90;99.90
31113;DHT22;17763;48.730;9.136;2023-05-07T07:25:55;17.10;99.90
31113;DHT22;17763;48.730;9.136;2023-05-07T07:28:21;17.30;99.90
31113;DHT22;17763;48.730;9.136;2023-05-07T07:30:47;17.50;99.90
31113;DHT22;17763;48.730;9.136;2023-05-07T07:33:13;17.60;99.90
31113;DHT22;17763;48.730;9.136;2023-05-07T07:35:41;17.80;99.90
31113;DHT22;17763;48.730;9.136;2023-05-07T07:38:06;18.00;99.90
31113;DHT22;17763;48.730;9.136;2023-05-07T07:40:34;18.20;99.90
31113;DHT22;17763;48.730;9.136;2023-05-07T07:43:03;18.30;99.90
31113;DHT22;17763;48.730;9.136;2023-05-07T07:45:31;18.50;99.90
31113;DHT22;17763;48.730;9.136;2023-05-07T07:47:57;18.70;99.90
31113;DHT22;17763;48.730;9.136;2023-05-07T07:50:22;18.80;99.90
31113;DHT22;17763;48.730;9.136;2023-05-07T07:52:48;19.00;99.90
31113;DHT22;17763;48.730;9.136;2023-05-07T07:55:14;19.10;99.90
31113;DHT22;17763;48.730;9.136;2023-05-07T07:57:43;19.20;99.90
31113;DHT22;17763;48.730;9.136;2023-05-07T08:00:09;19.30;99.90
31113;DHT22;17763;48.730;9.136;2023-05-07T08:02:35;19.40;99.90
31113;DHT22;17763;48.730;9.136;2023-05-07T08:05:01;19.50;99.90
31113;DHT22;17763;48.730;9.136;2023-05-07T08:07:29;19.60;99.90
31113;DHT22;17763;48.730;9.136;2023-05-07T08:09:55;19.60;99.50
31113;DHT22;17763;48.730;9.136;2023-05-07T08:12:20;19.70;99.80
31113;DHT22;17763;48.730;9.136;2023-05-07T08:14:46;19.80;99.90
31113;DHT22;17763;48.730;9.136;2023-05-07T08:17:14;19.80;99.60
31113;DHT22;17763;48.730;9.136;2023-05-07T08:19:42;19.90;99.50
31113;DHT22;17763;48.730;9.136;2023-05-07T08:22:08;19.90;99.30
31113;DHT22;17763;48.730;9.136;2023-05-07T08:24:34;20.00;98.30
31113;DHT22;17763;48.730;9.136;2023-05-07T08:27:02;20.00;98.10
31113;DHT22;17763;48.730;9.136;2023-05-07T08:29:30;20.10;97.40
31113;DHT22;17763;48.730;9.136;2023-05-07T08:31:55;20.20;96.80
31113;DHT22;17763;48.730;9.136;2023-05-07T08:34:22;20.20;97.30
31113;DHT22;17763;48.730;9.136;2023-05-07T08:36:48;20.20;97.00
31113;DHT22;17763;48.730;9.136;2023-05-07T08:39:17;20.20;96.90
31113;DHT22;17763;48.730;9.136;2023-05-07T08:41:46;20.20;96.80
31113;DHT22;17763;48.730;9.136;2023-05-07T08:44:16;20.20;97.00
31113;DHT22;17763;48.730;9.136;2023-05-07T08:46:45;20.20;97.10
31113;DHT22;17763;48.730;9.136;2023-05-07T08:49:12;20.30;97.80
31113;DHT22;17763;48.730;9.136;2023-05-07T08:51:38;20.30;97.80
31113;DHT22;17763;48.730;9.136;2023-05-07T08:54:04;20.30;97.80
31113;DHT22;17763;48.730;9.136;2023-05-07T08:56:30;20.30;98.10
31113;DHT22;17763;48.730;9.136;2023-05-07T08:58:56;20.40;97.80
31113;DHT22;17763;48.730;9.136;2023-05-07T09:01:24;20.40;97.10
31113;DHT22;17763;48.730;9.136;2023-05-07T09:03:53;20.50;97.00
31113;DHT22;17763;48.730;9.136;2023-05-07T09:06:21;20.50;96.60
31113;DHT22;17763;48.730;9.136;2023-05-07T09:08:51;20.50;96.70
31113;DHT22;17763;48.730;9.136;2023-05-07T09:11:20;20.60;97.20
31113;DHT22;17763;48.730;9.136;2023-05-07T09:13:46;20.60;96.30
31113;DHT22;17763;48.730;9.136;2023-05-07T09:16:13;20.60;96.10
31113;DHT22;17763;48.730;9.136;2023-05-07T09:18:43;20.60;96.00
31113;DHT22;17763;48.730;9.136;2023-05-07T09:21:15;20.60;96.00
31113;DHT22;17763;48.730;9.136;2023-05-07T09:23:41;20.70;95.70
31113;DHT22;17763;48.730;9.136;2023-05-07T09:26:07;20.70;95.70
31113;DHT22;17763;48.730;9.136;2023-05-07T09:28:40;20.80;95.50
31113;DHT22;17763;48.730;9.136;2023-05-07T09:31:12;20.80;95.30
31113;DHT22;17763;48.730;9.136;2023-05-07T09:33:39;20.80;95.60
31113;DHT22;17763;48.730;9.136;2023-05-07T09:36:06;20.90;95.50
31113;DHT22;17763;48.730;9.136;2023-05-07T09:38:33;20.90;94.60
31113;DHT22;17763;48.730;9.136;2023-05-07T09:41:09;20.90;94.30
31113;DHT22;17763;48.730;9.136;2023-05-07T09:43:39;21.00;94.60
31113;DHT22;17763;48.730;9.136;2023-05-07T09:46:14;21.10;94.60
31113;DHT22;17763;48.730;9.136;2023-05-07T09:48:45;21.10;93.70
31113;DHT22;17763;48.730;9.136;2023-05-07T09:53:43;21.20;93.30
31113;DHT22;17763;48.730;9.136;2023-05-07T09:56:13;21.20;92.40
31113;DHT22;17763;48.730;9.136;2023-05-07T09:58:43;21.30;92.60
31113;DHT22;17763;48.730;9.136;2023-05-07T10:01:11;21.40;93.50
31113;DHT22;17763;48.730;9.136;2023-05-07T10:03:41;21.40;92.60
31113;DHT22;17763;48.730;9.136;2023-05-07T10:06:10;21.40;92.30
31113;DHT22;17763;48.730;9.136;2023-05-07T10:08:37;21.60;92.60
31113;DHT22;17763;48.730;9.136;2023-05-07T10:11:05;21.60;92.70
31113;DHT22;17763;48.730;9.136;2023-05-07T10:13:34;21.70;92.40
31113;DHT22;17763;48.730;9.136;2023-05-07T10:16:06;21.80;91.80
31113;DHT22;17763;48.730;9.136;2023-05-07T10:18:32;21.90;91.50
31113;DHT22;17763;48.730;9.136;2023-05-07T10:23:41;22.10;90.60
31113;DHT22;17763;48.730;9.136;2023-05-07T10:26:13;22.20;89.20
31113;DHT22;17763;48.730;9.136;2023-05-07T10:28:44;22.20;88.90
31113;DHT22;17763;48.730;9.136;2023-05-07T10:33:57;22.60;86.60
31113;DHT22;17763;48.730;9.136;2023-05-07T10:36:24;22.80;86.70
31113;DHT22;17763;48.730;9.136;2023-05-07T10:38:50;23.00;84.90
31113;DHT22;17763;48.730;9.136;2023-05-07T10:41:19;23.20;83.70
31113;DHT22;17763;48.730;9.136;2023-05-07T10:43:47;23.40;82.50
31113;DHT22;17763;48.730;9.136;2023-05-07T10:46:16;23.60;81.00
31113;DHT22;17763;48.730;9.136;2023-05-07T10:51:37;23.80;78.90
31113;DHT22;17763;48.730;9.136;2023-05-07T10:56:38;23.90;75.10
31113;DHT22;17763;48.730;9.136;2023-05-07T11:04:18;24.00;75.30
31113;DHT22;17763;48.730;9.136;2023-05-07T11:15:06;24.50;71.80
31113;DHT22;17763;48.730;9.136;2023-05-07T11:17:33;24.60;72.20
31113;DHT22;17763;48.730;9.136;2023-05-07T11:20:01;24.60;71.30
31113;DHT22;17763;48.730;9.136;2023-05-07T11:25:04;24.60;69.80
31113;DHT22;17763;48.730;9.136;2023-05-07T11:27:33;24.60;69.00
31113;DHT22;17763;48.730;9.136;2023-05-07T11:29:59;24.40;70.60
31113;DHT22;17763;48.730;9.136;2023-05-07T11:32:28;24.40;70.80
31113;DHT22;17763;48.730;9.136;2023-05-07T11:34:58;24.30;69.60
31113;DHT22;17763;48.730;9.136;2023-05-07T11:37:27;24.10;71.00
31113;DHT22;17763;48.730;9.136;2023-05-07T11:40:05;24.00;71.90
31113;DHT22;17763;48.730;9.136;2023-05-07T11:42:39;23.80;70.40
31113;DHT22;17763;48.730;9.136;2023-05-07T11:45:06;23.70;70.60
31113;DHT22;17763;48.730;9.136;2023-05-07T11:47:34;23.50;70.10
31113;DHT22;17763;48.730;9.136;2023-05-07T11:50:05;23.30;70.70
31113;DHT22;17763;48.730;9.136;2023-05-07T11:52:31;23.20;71.10
31113;DHT22;17763;48.730;9.136;2023-05-07T11:55:02;23.10;72.30
31113;DHT22;17763;48.730;9.136;2023-05-07T11:57:29;23.00;73.40
31113;DHT22;17763;48.730;9.136;2023-05-07T11:59:55;22.90;70.50
31113;DHT22;17763;48.730;9.136;2023-05-07T12:02:21;22.80;70.50
31113;DHT22;17763;48.730;9.136;2023-05-07T12:04:47;22.70;71.30
31113;DHT22;17763;48.730;9.136;2023-05-07T12:07:14;22.50;71.20
31113;DHT22;17763;48.730;9.136;2023-05-07T12:09:41;22.20;77.60
31113;DHT22;17763;48.730;9.136;2023-05-07T12:12:07;21.80;82.70
31113;DHT22;17763;48.730;9.136;2023-05-07T12:14:35;21.20;86.20
31113;DHT22;17763;48.730;9.136;2023-05-07T12:17:03;20.60;88.30
31113;DHT22;17763;48.730;9.136;2023-05-07T12:19:30;20.10;90.00
31113;DHT22;17763;48.730;9.136;2023-05-07T12:21:58;19.70;90.30
31113;DHT22;17763;48.730;9.136;2023-05-07T12:24:26;19.40;91.40
31113;DHT22;17763;48.730;9.136;2023-05-07T12:26:52;19.20;92.80
31113;DHT22;17763;48.730;9.136;2023-05-07T12:29:21;19.00;93.10
31113;DHT22;17763;48.730;9.136;2023-05-07T12:31:49;18.80;93.20
31113;DHT22;17763;48.730;9.136;2023-05-07T12:34:18;18.60;93.40
31113;DHT22;17763;48.730;9.136;2023-05-07T12:36:43;18.50;94.10
31113;DHT22;17763;48.730;9.136;2023-05-07T12:39:09;18.20;97.30
31113;DHT22;17763;48.730;9.136;2023-05-07T12:41:54;17.90;99.90
31113;DHT22;17763;48.730;9.136;2023-05-07T12:44:23;17.40;99.90
31113;DHT22;17763;48.730;9.136;2023-05-07T12:46:50;16.80;99.90
31113;DHT22;17763;48.730;9.136;2023-05-07T12:49:16;16.70;99.90
31113;DHT22;17763;48.730;9.136;2023-05-07T12:51:43;16.40;99.90
31113;DHT22;17763;48.730;9.136;2023-05-07T12:54:09;16.30;99.30
31113;DHT22;17763;48.730;9.136;2023-05-07T12:56:38;16.30;99.90
31113;DHT22;17763;48.730;9.136;2023-05-07T12:59:03;16.30;99.90
31113;DHT22;17763;48.730;9.136;2023-05-07T13:01:30;16.30;99.90
31113;DHT22;17763;48.730;9.136;2023-05-07T13:04:00;16.30;99.90
31113;DHT22;17763;48.730;9.136;2023-05-07T13:06:26;16.40;99.90
31113;DHT22;17763;48.730;9.136;2023-05-07T13:08:53;16.40;99.90
31113;DHT22;17763;48.730;9.136;2023-05-07T13:11:18;16.50;99.90
31113;DHT22;17763;48.730;9.136;2023-05-07T13:13:44;16.50;99.90
31113;DHT22;17763;48.730;9.136;2023-05-07T13:16:11;16.50;99.90
31113;DHT22;17763;48.730;9.136;2023-05-07T13:18:39;16.60;99.90
31113;DHT22;17763;48.730;9.136;2023-05-07T13:21:05;16.60;99.90
31113;DHT22;17763;48.730;9.136;2023-05-07T13:23:31;16.60;99.90
31113;DHT22;17763;48.730;9.136;2023-05-07T13:25:56;16.60;99.90
31113;DHT22;17763;48.730;9.136;2023-05-07T13:28:26;16.40;99.90
31113;DHT22;17763;48.730;9.136;2023-05-07T13:30:52;16.10;99.90
31113;DHT22;17763;48.730;9.136;2023-05-07T13:33:18;15.90;99.90
31113;DHT22;17763;48.730;9.136;2023-05-07T13:35:44;15.70;99.90
31113;DHT22;17763;48.730;9.136;2023-05-07T13:38:10;15.70;99.90
31113;DHT22;17763;48.730;9.136;2023-05-07T13:40:36;15.70;99.90
31113;DHT22;17763;48.730;9.136;2023-05-07T13:43:01;15.70;99.90
31113;DHT22;17763;48.730;9.136;2023-05-07T13:45:28;15.60;99.90
31113;DHT22;17763;48.730;9.136;2023-05-07T13:47:59;15.50;99.90
31113;DHT22;17763;48.730;9.136;2023-05-07T13:50:25;15.50;99.90
31113;DHT22;17763;48.730;9.136;2023-05-07T13:52:55;15.60;99.90
31113;DHT22;17763;48.730;9.136;2023-05-07T13:55:24;15.70;99.90
31113;DHT22;17763;48.730;9.136;2023-05-07T13:57:57;15.70;99.90
31113;DHT22;17763;48.730;9.136;2023-05-07T14:00:27;15.80;99.90
31113;DHT22;17763;48.730;9.136;2023-05-07T14:02:56;15.80;99.90
31113;DHT22;17763;48.730;9.136;2023-05-07T14:05:22;15.70;99.90
31113;DHT22;17763;48.730;9.136;2023-05-07T14:07:52;15.70;99.90
31113;DHT22;17763;48.730;9.136;2023-05-07T14:10:18;15.70;99.90
31113;DHT22;17763;48.730;9.136;2023-05-07T14:12:47;15.70;99.90
31113;DHT22;17763;48.730;9.136;2023-05-07T14:15:13;15.70;99.90
31113;DHT22;17763;48.730;9.136;2023-05-07T14:17:39;15.70;99.90
31113;DHT22;17763;48.730;9.136;2023-05-07T14:20:05;15.80;99.90
31113;DHT22;17763;48.730;9.136;2023-05-07T14:22:34;15.80;99.90
31113;DHT22;17763;48.730;9.136;2023-05-07T14:25:00;15.80;99.90
31113;DHT22;17763;48.730;9.136;2023-05-07T14:27:28;15.90;99.90
31113;DHT22;17763;48.730;9.136;2023-05-07T14:29:54;15.80;99.90
31113;DHT22;17763;48.730;9.136;2023-05-07T14:32:21;15.90;99.90
31113;DHT22;17763;48.730;9.136;2023-05-07T14:34:50;15.90;99.90
31113;DHT22;17763;48.730;9.136;2023-05-07T14:37:16;15.90;99.90
31113;DHT22;17763;48.730;9.136;2023-05-07T14:39:41;15.90;99.90
31113;DHT22;17763;48.730;9.136;2023-05-07T14:42:07;15.90;99.90
31113;DHT22;17763;48.730;9.136;2023-05-07T14:44:36;16.00;99.90
31113;DHT22;17763;48.730;9.136;2023-05-07T14:47:02;16.00;99.90
31113;DHT22;17763;48.730;9.136;2023-05-07T14:49:30;16.00;99.90
31113;DHT22;17763;48.730;9.136;2023-05-07T14:51:57;16.00;99.90
31113;DHT22;17763;48.730;9.136;2023-05-07T14:54:25;16.00;99.90
31113;DHT22;17763;48.730;9.136;2023-05-07T14:56:50;16.10;99.90
31113;DHT22;17763;48.730;9.136;2023-05-07T14:59:16;16.10;99.90
31113;DHT22;17763;48.730;9.136;2023-05-07T15:01:47;16.20;99.90
31113;DHT22;17763;48.730;9.136;2023-05-07T15:04:12;16.20;99.90
31113;DHT22;17763;48.730;9.136;2023-05-07T15:06:38;16.30;99.90
31113;DHT22;17763;48.730;9.136;2023-05-07T15:09:04;16.30;99.90
31113;DHT22;17763;48.730;9.136;2023-05-07T15:11:32;16.30;99.90
31113;DHT22;17763;48.730;9.136;2023-05-07T15:14:00;16.30;99.90
31113;DHT22;17763;48.730;9.136;2023-05-07T15:16:27;16.30;99.90
31113;DHT22;17763;48.730;9.136;2023-05-07T15:18:53;16.40;99.90
31113;DHT22;17763;48.730;9.136;2023-05-07T15:21:18;16.40;99.90
31113;DHT22;17763;48.730;9.136;2023-05-07T15:23:44;16.50;99.90
31113;DHT22;17763;48.730;9.136;2023-05-07T15:26:10;16.50;99.90
31113;DHT22;17763;48.730;9.136;2023-05-07T15:28:36;16.60;99.90
31113;DHT22;17763;48.730;9.136;2023-05-07T15:31:04;16.70;99.90
31113;DHT22;17763;48.730;9.136;2023-05-07T15:33:31;16.70;99.90
31113;DHT22;17763;48.730;9.136;2023-05-07T15:35:56;16.80;99.90
31113;DHT22;17763;48.730;9.136;2023-05-07T15:38:26;16.80;99.90
31113;DHT22;17763;48.730;9.136;2023-05-07T15:40:51;16.80;99.90
31113;DHT22;17763;48.730;9.136;2023-05-07T15:43:17;16.90;99.90
31113;DHT22;17763;48.730;9.136;2023-05-07T15:45:43;16.90;99.90
31113;DHT22;17763;48.730;9.136;2023-05-07T15:48:09;16.80;99.90
31113;DHT22;17763;48.730;9.136;2023-05-07T15:50:36;16.70;99.90
31113;DHT22;17763;48.730;9.136;2023-05-07T15:53:02;16.30;99.90
31113;DHT22;17763;48.730;9.136;2023-05-07T15:55:29;16.10;99.90
31113;DHT22;17763;48.730;9.136;2023-05-07T15:57:57;16.20;99.90